Terminal Aerodrome Forecast
Issued by NWS Knoxville/Tri Cities, TN

Home | Current Version | Previous Version | Text Only | Print | Product List | Glossary On
Versions: 1 2 3 4 5 6 7 8 9 10 11 12 13 14 15 16 17 18 19 20 21 22 23 24 25 26 27 28
259
FTUS44 KMRX 210520
TAFTRI
TAF
KTRI 210520Z 2106/2206 25006KT P6SM BKN060
      TEMPO 2109/2112 2SM BR BKN015
     FM211500 00000KT P6SM OVC250
     FM212100 30003KT P6SM OVC050
     FM220400 00000KT 6SM BR OVC050=

USA.gov is the U.S. government's official web portal to all federal, state and local government web resources and services.